Time;durP1;ratioP1;P1;durP2;ratioP2;P2;SDS_P1;SDS_P2;PMS_P1;PMS_P2;Temp;Humidity;BMP_temperature;BMP_pressure;BME280_temperature;BME280_humidity;BME280_pressure;Samples;Min_cycle;Max_cycle;Signal;HPM_P1;HPM_P2
2023/06/29 00:02:25;;;;;;;;;;;;;;;;;;5051771;28;19967;-68
2023/06/29 00:04:50;;;;;;;;;;;;;;;;;;5073028;28;19920;-68
2023/06/29 00:07:16;;;;;;;;;;;;;;;;;;5073759;28;20488;-67
2023/06/29 00:09:43;;;;;;;;;;;;;;;;;;5071586;28;19932;-68
2023/06/29 00:12:09;;;;;;;;;;;;;;;;;;5071048;28;20389;-68
2023/06/29 00:14:35;;;;;;;;;;;;;;;;;;5070685;28;19970;-68
2023/06/29 00:17:01;;;;;;;;;;;;;;;;;;5070458;28;19946;-68
2023/06/29 00:19:27;;;;;;;;;;;;;;;;;;5073061;28;19933;-68
2023/06/29 00:21:53;;;;;;;;;;;;;;;;;;5072582;28;20258;-68
2023/06/29 00:24:19;;;;;;;;;;;;;;;;;;5072595;28;19924;-68
2023/06/29 00:26:45;;;;;;;;;;;;;;;;;;5073238;28;19974;-68
2023/06/29 00:29:11;;;;;;;;;;;;;;;;;;5071958;28;19921;-68
2023/06/29 00:31:37;;;;;;;;;;;;;;;;;;5069187;28;19939;-68
2023/06/29 00:34:03;;;;;;;;;;;;;;;;;;5071340;28;20011;-68
2023/06/29 00:36:29;;;;;;;;;;;;;;;;;;5065850;28;19931;-68
2023/06/29 00:38:54;;;;;;;;;;;;;;;;;;5055516;28;19920;-68
2023/06/29 00:41:20;;;;;;;;;;;;;;;;;;5073573;28;19965;-67
2023/06/29 00:43:46;;;;;;;;;;;;;;;;;;5072267;28;20362;-68
2023/06/29 00:46:12;;;;;;;;;;;;;;;;;;5070693;28;19970;-67
2023/06/29 00:48:38;;;;;;;;;;;;;;;;;;5071246;28;19920;-67
2023/06/29 00:51:04;;;;;;;;;;;;;;;;;;5068931;28;19935;-68
2023/06/29 00:53:30;;;;;;;;;;;;;;;;;;5069845;28;19975;-68
2023/06/29 00:55:56;;;;;;;;;;;;;;;;;;5066643;28;20336;-68
2023/06/29 00:58:22;;;;;;;;;;;;;;;;;;5070651;28;19973;-68
2023/06/29 01:00:48;;;;;;;;;;;;;;;;;;5071953;28;19931;-68
2023/06/29 01:03:13;;;;;;;;;;;;;;;;;;5072262;28;20366;-68
2023/06/29 01:05:41;;;;;;;;;;;;;;;;;;5070462;28;19932;-68
2023/06/29 01:08:07;;;;;;;;;;;;;;;;;;5073850;28;19924;-68
2023/06/29 01:10:33;;;;;;;;;;;;;;;;;;5068128;28;19970;-68
2023/06/29 01:12:59;;;;;;;;;;;;;;;;;;5072942;28;20356;-68
2023/06/29 01:15:25;;;;;;;;;;;;;;;;;;5071073;28;20019;-68
2023/06/29 01:17:51;;;;;;;;;;;;;;;;;;5068616;28;19924;-68
2023/06/29 01:20:17;;;;;;;;;;;;;;;;;;5068284;28;19932;-68
2023/06/29 01:22:43;;;;;;;;;;;;;;;;;;5071997;28;19948;-68
2023/06/29 01:25:08;;;;;;;;;;;;;;;;;;5071826;28;20488;-68
2023/06/29 01:27:34;;;;;;;;;;;;;;;;;;5072513;28;20011;-67
2023/06/29 01:30:01;;;;;;;;;;;;;;;;;;5069606;28;19920;-67
2023/06/29 01:32:33;;;;;;;;;;;;;;;;;;5070936;28;19925;-68
2023/06/29 01:34:59;;;;;;;;;;;;;;;;;;5072234;28;19924;-68
2023/06/29 01:37:25;;;;;;;;;;;;;;;;;;5068497;28;19932;-68
2023/06/29 01:39:51;;;;;;;;;;;;;;;;;;5071805;28;19928;-67
2023/06/29 01:42:17;;;;;;;;;;;;;;;;;;5072897;28;19931;-67
2023/06/29 01:44:43;;;;;;;;;;;;;;;;;;5072754;28;19924;-67
2023/06/29 01:47:09;;;;;;;;;;;;;;;;;;5071829;28;19998;-68
2023/06/29 01:49:35;;;;;;;;;;;;;;;;;;5070347;28;19924;-68
2023/06/29 01:52:01;;;;;;;;;;;;;;;;;;5071175;28;19939;-68
2023/06/29 01:54:27;;;;;;;;;;;;;;;;;;5068894;28;19924;-68
2023/06/29 01:56:52;;;;;;;;;;;;;;;;;;5071779;28;19921;-68
2023/06/29 01:59:18;;;;;;;;;;;;;;;;;;5071030;28;20019;-68
2023/06/29 02:01:44;;;;;;;;;;;;;;;;;;5071584;28;19928;-68
2023/06/29 02:04:10;;;;;;;;;;;;;;;;;;5071601;28;19927;-68
2023/06/29 02:06:36;;;;;;;;;;;;;;;;;;5054051;28;19928;-68
2023/06/29 02:09:02;;;;;;;;;;;;;;;;;;5068386;28;20602;-67
2023/06/29 02:11:28;;;;;;;;;;;;;;;;;;5072080;28;20019;-68
2023/06/29 02:13:54;;;;;;;;;;;;;;;;;;5068295;28;20420;-68
2023/06/29 02:16:20;;;;;;;;;;;;;;;;;;5065695;28;19965;-68
2023/06/29 02:18:46;;;;;;;;;;;;;;;;;;5067311;28;19920;-68
2023/06/29 02:21:11;;;;;;;;;;;;;;;;;;5069771;28;20326;-68
2023/06/29 02:23:37;;;;;;;;;;;;;;;;;;5070551;28;19924;-68
2023/06/29 02:26:03;;;;;;;;;;;;;;;;;;5069725;28;19960;-69
2023/06/29 02:28:29;;;;;;;;;;;;;;;;;;5068373;28;19973;-67
2023/06/29 02:30:55;;;;;;;;;;;;;;;;;;5064482;28;19943;-68
2023/06/29 02:33:21;;;;;;;;;;;;;;;;;;5068771;28;19924;-68
2023/06/29 02:35:47;;;;;;;;;;;;;;;;;;5067274;28;19921;-67
2023/06/29 02:38:13;;;;;;;;;;;;;;;;;;5068053;28;19939;-68
2023/06/29 02:40:38;;;;;;;;;;;;;;;;;;5067546;28;19979;-67
2023/06/29 02:43:04;;;;;;;;;;;;;;;;;;5063295;28;19925;-68
2023/06/29 02:45:30;;;;;;;;;;;;;;;;;;5047007;28;19963;-67
2023/06/29 02:47:56;;;;;;;;;;;;;;;;;;5046503;28;20354;-67
2023/06/29 02:50:22;;;;;;;;;;;;;;;;;;5041628;28;19935;-67
2023/06/29 02:52:48;;;;;;;;;;;;;;;;;;5063301;28;19925;-68
2023/06/29 02:55:14;;;;;;;;;;;;;;;;;;5067582;28;19921;-67
2023/06/29 02:57:40;;;;;;;;;;;;;;;;;;5066953;28;19920;-67
2023/06/29 03:00:07;;;;;;;;;;;;;;;;;;5066812;28;19929;-67
2023/06/29 03:02:33;;;;;;;;;;;;;;;;;;5065196;28;20266;-68
2023/06/29 03:04:59;;;;;;;;;;;;;;;;;;5071143;28;19925;-67
2023/06/29 03:07:25;;;;;;;;;;;;;;;;;;5068181;28;19939;-67
2023/06/29 03:09:51;;;;;;;;;;;;;;;;;;5067464;28;19927;-67
2023/06/29 03:12:17;;;;;;;;;;;;;;;;;;5066757;28;20279;-67
2023/06/29 03:14:43;;;;;;;;;;;;;;;;;;5067551;28;19936;-68
2023/06/29 03:17:09;;;;;;;;;;;;;;;;;;5066243;28;20627;-67
2023/06/29 03:19:34;;;;;;;;;;;;;;;;;;5060220;28;19925;-68
2023/06/29 03:22:00;;;;;;;;;;;;;;;;;;5061146;28;19969;-68
2023/06/29 03:24:26;;;;;;;;;;;;;;;;;;5066812;28;20029;-68
2023/06/29 03:26:52;;;;;;;;;;;;;;;;;;5066882;28;19935;-68
2023/06/29 03:29:18;;;;;;;;;;;;;;;;;;5069730;28;19921;-67
2023/06/29 03:31:44;;;;;;;;;;;;;;;;;;5066494;28;19920;-68
2023/06/29 03:34:10;;;;;;;;;;;;;;;;;;5069162;28;19920;-67
2023/06/29 03:36:36;;;;;;;;;;;;;;;;;;5068084;28;19928;-67
2023/06/29 03:39:02;;;;;;;;;;;;;;;;;;5068802;28;19967;-68
2023/06/29 03:41:28;;;;;;;;;;;;;;;;;;5068041;28;19927;-67
2023/06/29 03:43:55;;;;;;;;;;;;;;;;;;5068239;28;19920;-68
2023/06/29 03:46:21;;;;;;;;;;;;;;;;;;5067437;28;19928;-68
2023/06/29 03:48:47;;;;;;;;;;;;;;;;;;5063963;28;19929;-68
2023/06/29 03:51:12;;;;;;;;;;;;;;;;;;5070533;28;20427;-67
2023/06/29 03:53:38;;;;;;;;;;;;;;;;;;5069336;28;19921;-68
2023/06/29 03:56:04;;;;;;;;;;;;;;;;;;5070292;28;19966;-67
2023/06/29 03:58:30;;;;;;;;;;;;;;;;;;5068511;28;19960;-68
2023/06/29 04:00:56;;;;;;;;;;;;;;;;;;5067868;28;19929;-67
2023/06/29 04:03:22;;;;;;;;;;;;;;;;;;5065349;28;19959;-67
2023/06/29 04:05:48;;;;;;;;;;;;;;;;;;5068727;28;20831;-68
2023/06/29 04:08:14;;;;;;;;;;;;;;;;;;5067839;28;19927;-68
2023/06/29 04:10:40;;;;;;;;;;;;;;;;;;5070446;28;19928;-67
2023/06/29 04:13:06;;;;;;;;;;;;;;;;;;5070586;28;20358;-68
2023/06/29 04:15:32;;;;;;;;;;;;;;;;;;5068169;28;20362;-68
2023/06/29 04:17:58;;;;;;;;;;;;;;;;;;5068093;28;19969;-68
2023/06/29 04:20:24;;;;;;;;;;;;;;;;;;5064911;28;19932;-67
2023/06/29 04:22:50;;;;;;;;;;;;;;;;;;5068799;28;19999;-67
2023/06/29 04:25:16;;;;;;;;;;;;;;;;;;5070163;28;20430;-67
2023/06/29 04:27:42;;;;;;;;;;;;;;;;;;5066591;28;20138;-68
2023/06/29 04:30:08;;;;;;;;;;;;;;;;;;5066539;28;19920;-68
2023/06/29 04:32:35;;;;;;;;;;;;;;;;;;5067547;28;19921;-68
2023/06/29 04:35:01;;;;;;;;;;;;;;;;;;5070487;28;19978;-67
2023/06/29 04:37:35;;;;;;;;;;;;;;;;;;5068745;28;19969;-68
2023/06/29 04:40:01;;;;;;;;;;;;;;;;;;5066088;28;19935;-68
2023/06/29 04:42:30;;;;;;;;;;;;;;;;;;5072275;28;19921;-68
2023/06/29 04:44:56;;;;;;;;;;;;;;;;;;5071579;28;19927;-68
2023/06/29 04:47:22;;;;;;;;;;;;;;;;;;5070473;28;19928;-68
2023/06/29 04:49:51;;;;;;;;;;;;;;;;;;5067363;28;21157;-68
2023/06/29 04:52:18;;;;;;;;;;;;;;;;;;5072804;28;19965;-67
2023/06/29 04:54:44;;;;;;;;;;;;;;;;;;5062512;28;20431;-68
2023/06/29 04:57:12;;;;;;;;;;;;;;;;;;5071705;28;20030;-67
2023/06/29 04:59:38;;;;;;;;;;;;;;;;;;5071732;28;19924;-68
2023/06/29 05:02:04;;;;;;;;;;;;;;;;;;5066456;28;19928;-68
2023/06/29 05:04:30;;;;;;;;;;;;;;;;;;5069991;28;19932;-68
2023/06/29 05:06:56;;;;;;;;;;;;;;;;;;5073922;28;19920;-68
2023/06/29 05:09:22;;;;;;;;;;;;;;;;;;5071362;28;20382;-68
2023/06/29 05:11:48;;;;;;;;;;;;;;;;;;5068902;28;19954;-68
2023/06/29 05:14:14;;;;;;;;;;;;;;;;;;5071583;28;19948;-68
2023/06/29 05:16:39;;;;;;;;;;;;;;;;;;5071883;28;19928;-68
2023/06/29 05:19:05;;;;;;;;;;;;;;;;;;5067766;28;19956;-68
2023/06/29 05:21:31;;;;;;;;;;;;;;;;;;5063694;28;21000;-68
2023/06/29 05:23:57;;;;;;;;;;;;;;;;;;5067630;28;19948;-68
2023/06/29 05:26:23;;;;;;;;;;;;;;;;;;5071815;28;19920;-68
2023/06/29 05:28:49;;;;;;;;;;;;;;;;;;5068283;28;19959;-68
2023/06/29 05:31:15;;;;;;;;;;;;;;;;;;5059130;28;20457;-67
2023/06/29 05:33:41;;;;;;;;;;;;;;;;;;5070035;28;19935;-67
2023/06/29 05:36:07;;;;;;;;;;;;;;;;;;5071032;28;20539;-67
2023/06/29 05:38:32;;;;;;;;;;;;;;;;;;5067834;28;19929;-68
2023/06/29 05:40:58;;;;;;;;;;;;;;;;;;5070542;28;20023;-68
2023/06/29 05:43:24;;;;;;;;;;;;;;;;;;5065948;28;19925;-68
2023/06/29 05:45:50;;;;;;;;;;;;;;;;;;5067887;28;19978;-68
2023/06/29 05:48:16;;;;;;;;;;;;;;;;;;5066810;28;19928;-67
2023/06/29 05:50:42;;;;;;;;;;;;;;;;;;5064635;28;19959;-68
2023/06/29 05:53:08;;;;;;;;;;;;;;;;;;5067979;28;20389;-68
2023/06/29 05:55:34;;;;;;;;;;;;;;;;;;5070377;28;19920;-68
2023/06/29 05:57:59;;;;;;;;;;;;;;;;;;5070584;28;20416;-67
2023/06/29 06:00:25;;;;;;;;;;;;;;;;;;5066255;28;19932;-68
2023/06/29 06:02:51;;;;;;;;;;;;;;;;;;5070188;28;19990;-66
2023/06/29 06:05:17;;;;;;;;;;;;;;;;;;5067853;28;19920;-65
2023/06/29 06:07:43;;;;;;;;;;;;;;;;;;5068205;28;19974;-65
2023/06/29 06:10:09;;;;;;;;;;;;;;;;;;5065441;28;19920;-65
2023/06/29 06:12:35;;;;;;;;;;;;;;;;;;5068988;28;19935;-65
2023/06/29 06:15:01;;;;;;;;;;;;;;;;;;5066809;28;19920;-65
2023/06/29 06:17:27;;;;;;;;;;;;;;;;;;5065406;28;20290;-65
2023/06/29 06:19:53;;;;;;;;;;;;;;;;;;5069416;28;19928;-65
2023/06/29 06:22:19;;;;;;;;;;;;;;;;;;5070561;28;19924;-66
2023/06/29 06:24:45;;;;;;;;;;;;;;;;;;5069391;28;20416;-66
2023/06/29 06:27:11;;;;;;;;;;;;;;;;;;5046988;28;20366;-66
2023/06/29 06:29:37;;;;;;;;;;;;;;;;;;5063337;28;20377;-65
2023/06/29 06:32:03;;;;;;;;;;;;;;;;;;5065924;28;19928;-66
2023/06/29 06:34:30;;;;;;;;;;;;;;;;;;5069499;28;19921;-65
2023/06/29 06:36:56;;;;;;;;;;;;;;;;;;5072536;22;20308;-65
2023/06/29 06:39:22;;;;;;;;;;;;;;;;;;5064776;28;19928;-65
2023/06/29 06:41:48;;;;;;;;;;;;;;;;;;5067836;28;19927;-66
2023/06/29 06:44:14;;;;;;;;;;;;;;;;;;5069143;28;19924;-65
2023/06/29 06:46:40;;;;;;;;;;;;;;;;;;5072270;28;20376;-67
2023/06/29 06:49:06;;;;;;;;;;;;;;;;;;5071263;28;19959;-67
2023/06/29 06:51:32;;;;;;;;;;;;;;;;;;5071101;28;19920;-67
2023/06/29 06:53:58;;;;;;;;;;;;;;;;;;5067367;28;19931;-67
2023/06/29 06:56:24;;;;;;;;;;;;;;;;;;5061561;28;19924;-67
2023/06/29 06:58:50;;;;;;;;;;;;;;;;;;5070775;28;20262;-67
2023/06/29 07:01:15;;;;;;;;;;;;;;;;;;5071959;28;19924;-67
2023/06/29 07:03:41;;;;;;;;;;;;;;;;;;5072007;28;19950;-67
2023/06/29 07:06:07;;;;;;;;;;;;;;;;;;5067692;28;19921;-67
2023/06/29 07:08:35;;;;;;;;;;;;;;;;;;5062528;28;19931;-67
2023/06/29 07:11:01;;;;;;;;;;;;;;;;;;5068502;28;20043;-67
2023/06/29 07:13:27;;;;;;;;;;;;;;;;;;5069211;28;20018;-67
2023/06/29 07:15:53;;;;;;;;;;;;;;;;;;5068044;28;20649;-67
2023/06/29 07:18:19;;;;;;;;;;;;;;;;;;5070898;28;19925;-67
2023/06/29 07:20:45;;;;;;;;;;;;;;;;;;5077902;28;19924;-67
2023/06/29 07:23:10;;;;;;;;;;;;;;;;;;5090687;28;19927;-67
2023/06/29 07:25:37;;;;;;;;;;;;;;;;;;5072917;28;19932;-67
2023/06/29 07:28:02;;;;;;;;;;;;;;;;;;5068230;28;19929;-67
2023/06/29 07:30:28;;;;;;;;;;;;;;;;;;5066491;28;19920;-67
2023/06/29 07:32:54;;;;;;;;;;;;;;;;;;5069719;28;19928;-67
2023/06/29 07:35:20;;;;;;;;;;;;;;;;;;5066395;28;20013;-67
2023/06/29 07:37:46;;;;;;;;;;;;;;;;;;5067149;28;19934;-67
2023/06/29 07:40:12;;;;;;;;;;;;;;;;;;5068957;28;19928;-67
2023/06/29 07:42:38;;;;;;;;;;;;;;;;;;5068396;28;19927;-67
2023/06/29 07:45:05;;;;;;;;;;;;;;;;;;5066934;28;19925;-67
2023/06/29 07:47:31;;;;;;;;;;;;;;;;;;5068262;28;19998;-67
2023/06/29 07:49:57;;;;;;;;;;;;;;;;;;5065474;28;19946;-67
2023/06/29 07:52:23;;;;;;;;;;;;;;;;;;5064584;28;20427;-67
2023/06/29 07:54:49;;;;;;;;;;;;;;;;;;5063171;28;19929;-67
2023/06/29 07:57:15;;;;;;;;;;;;;;;;;;5060944;28;19938;-67
2023/06/29 07:59:41;;;;;;;;;;;;;;;;;;5068159;28;19928;-67
2023/06/29 08:02:07;;;;;;;;;;;;;;;;;;5068429;28;20305;-67
2023/06/29 08:04:32;;;;;;;;;;;;;;;;;;5070917;28;19928;-67
2023/06/29 08:06:58;;;;;;;;;;;;;;;;;;5068536;28;19920;-67
2023/06/29 08:09:24;;;;;;;;;;;;;;;;;;5071685;28;20255;-68
2023/06/29 08:11:50;;;;;;;;;;;;;;;;;;5053541;28;20377;-67
2023/06/29 08:14:16;;;;;;;;;;;;;;;;;;5072304;28;19921;-67
2023/06/29 08:16:42;;;;;;;;;;;;;;;;;;5067191;28;19921;-67
2023/06/29 08:19:08;;;;;;;;;;;;;;;;;;5074830;28;19935;-67
2023/06/29 08:21:34;;;;;;;;;;;;;;;;;;5074914;28;20034;-67
2023/06/29 08:24:00;;;;;;;;;;;;;;;;;;5074940;28;19920;-67
2023/06/29 08:26:25;;;;;;;;;;;;;;;;;;5053364;28;19921;-67
2023/06/29 08:28:51;;;;;;;;;;;;;;;;;;5069036;28;20238;-67
2023/06/29 08:31:19;;;;;;;;;;;;;;;;;;5084894;28;19924;-67
2023/06/29 08:33:45;;;;;;;;;;;;;;;;;;5073230;28;19920;-67
2023/06/29 08:36:10;;;;;;;;;;;;;;;;;;5068461;28;19951;-67
2023/06/29 08:38:36;;;;;;;;;;;;;;;;;;5074496;28;19920;-67
2023/06/29 08:41:02;;;;;;;;;;;;;;;;;;5074793;28;19924;-67
2023/06/29 08:43:28;;;;;;;;;;;;;;;;;;5074699;28;19960;-67
2023/06/29 08:45:54;;;;;;;;;;;;;;;;;;5074597;28;19931;-67
2023/06/29 08:48:20;;;;;;;;;;;;;;;;;;5072879;28;19927;-67
2023/06/29 08:50:46;;;;;;;;;;;;;;;;;;5094268;28;19920;-67
2023/06/29 08:53:12;;;;;;;;;;;;;;;;;;5063935;28;19994;-67
2023/06/29 08:55:39;;;;;;;;;;;;;;;;;;5075836;28;20646;-67
2023/06/29 08:58:05;;;;;;;;;;;;;;;;;;5072823;28;19920;-67
2023/06/29 09:00:31;;;;;;;;;;;;;;;;;;5071434;28;19979;-67
2023/06/29 09:02:57;;;;;;;;;;;;;;;;;;5073957;28;20437;-67
2023/06/29 09:05:23;;;;;;;;;;;;;;;;;;5073954;28;19943;-67
2023/06/29 09:07:50;;;;;;;;;;;;;;;;;;5074026;28;20332;-67
2023/06/29 09:10:16;;;;;;;;;;;;;;;;;;5070136;28;20381;-67
2023/06/29 09:12:42;;;;;;;;;;;;;;;;;;5069319;28;19927;-67
2023/06/29 09:15:09;;;;;;;;;;;;;;;;;;5071475;28;19921;-67
2023/06/29 09:17:36;;;;;;;;;;;;;;;;;;5072257;28;19960;-67
2023/06/29 09:20:07;;;;;;;;;;;;;;;;;;5071275;28;19928;-67
2023/06/29 09:22:33;;;;;;;;;;;;;;;;;;5067255;28;19928;-67
2023/06/29 09:24:59;;;;;;;;;;;;;;;;;;5072294;28;20263;-67
2023/06/29 09:27:25;;;;;;;;;;;;;;;;;;5073754;28;19921;-67
2023/06/29 09:29:51;;;;;;;;;;;;;;;;;;5073893;28;19925;-67
2023/06/29 09:32:17;;;;;;;;;;;;;;;;;;5068828;28;20281;-67
2023/06/29 09:34:42;;;;;;;;;;;;;;;;;;5069597;28;19931;-67
2023/06/29 09:37:08;;;;;;;;;;;;;;;;;;5072923;28;19928;-67
2023/06/29 09:39:34;;;;;;;;;;;;;;;;;;5070603;28;20033;-67
2023/06/29 09:42:00;;;;;;;;;;;;;;;;;;5072642;28;20014;-67
2023/06/29 09:44:26;;;;;;;;;;;;;;;;;;5053042;28;19995;-67
2023/06/29 09:46:52;;;;;;;;;;;;;;;;;;5070238;28;19921;-67
2023/06/29 09:49:18;;;;;;;;;;;;;;;;;;5073208;28;19924;-67
2023/06/29 09:51:44;;;;;;;;;;;;;;;;;;5070026;28;19921;-67
2023/06/29 09:54:10;;;;;;;;;;;;;;;;;;5072418;28;19921;-67
2023/06/29 09:56:36;;;;;;;;;;;;;;;;;;5071918;28;19920;-67
2023/06/29 09:59:02;;;;;;;;;;;;;;;;;;5072388;28;19925;-67
2023/06/29 10:01:31;;;;;;;;;;;;;;;;;;5057394;28;19925;-67
2023/06/29 10:03:57;;;;;;;;;;;;;;;;;;5056073;28;19931;-67
2023/06/29 10:06:23;;;;;;;;;;;;;;;;;;5073252;28;19928;-67
2023/06/29 10:08:49;;;;;;;;;;;;;;;;;;5072460;28;20385;-67
2023/06/29 10:11:16;;;;;;;;;;;;;;;;;;5071998;28;20003;-67
2023/06/29 10:13:42;;;;;;;;;;;;;;;;;;5071937;28;20032;-67
2023/06/29 10:16:07;;;;;;;;;;;;;;;;;;5070518;28;20625;-67
2023/06/29 10:18:33;;;;;;;;;;;;;;;;;;5070817;28;19990;-67
2023/06/29 10:20:59;;;;;;;;;;;;;;;;;;5069052;28;19925;-67
2023/06/29 10:23:25;;;;;;;;;;;;;;;;;;5071323;28;19924;-67
2023/06/29 10:25:51;;;;;;;;;;;;;;;;;;5070446;28;19924;-67
2023/06/29 10:28:17;;;;;;;;;;;;;;;;;;5069113;28;19966;-67
2023/06/29 10:30:44;;;;;;;;;;;;;;;;;;5071728;28;20023;-67
2023/06/29 10:33:10;;;;;;;;;;;;;;;;;;5071972;28;19924;-67
2023/06/29 10:35:36;;;;;;;;;;;;;;;;;;5071924;28;19921;-67
2023/06/29 10:38:02;;;;;;;;;;;;;;;;;;5064453;28;20004;-67
2023/06/29 10:40:29;;;;;;;;;;;;;;;;;;5050724;28;19929;-67
2023/06/29 10:42:54;;;;;;;;;;;;;;;;;;5069981;28;19920;-67
2023/06/29 10:45:21;;;;;;;;;;;;;;;;;;5069177;28;20294;-67
2023/06/29 10:47:47;;;;;;;;;;;;;;;;;;5067589;28;19951;-67
2023/06/29 10:50:21;;;;;;;;;;;;;;;;;;5070803;28;20406;-67
2023/06/29 10:52:47;;;;;;;;;;;;;;;;;;5071287;28;19928;-67
2023/06/29 10:55:14;;;;;;;;;;;;;;;;;;5072015;28;19928;-67
2023/06/29 10:57:41;;;;;;;;;;;;;;;;;;5072286;28;19994;-67
2023/06/29 11:00:07;;;;;;;;;;;;;;;;;;5070462;28;19964;-67
2023/06/29 11:02:33;;;;;;;;;;;;;;;;;;5070841;28;20012;-67
2023/06/29 11:05:01;;;;;;;;;;;;;;;;;;5071280;28;21643;-67
2023/06/29 11:07:27;;;;;;;;;;;;;;;;;;5070133;28;20364;-67
2023/06/29 11:09:53;;;;;;;;;;;;;;;;;;5061930;28;20008;-67
2023/06/29 11:12:18;;;;;;;;;;;;;;;;;;5052021;28;19931;-67
2023/06/29 11:14:44;;;;;;;;;;;;;;;;;;5051640;28;19925;-67
2023/06/29 11:17:10;;;;;;;;;;;;;;;;;;5052123;28;19975;-67
2023/06/29 11:19:36;;;;;;;;;;;;;;;;;;5051814;28;20530;-67
2023/06/29 11:22:02;;;;;;;;;;;;;;;;;;5051965;28;19931;-67
2023/06/29 11:24:28;;;;;;;;;;;;;;;;;;5066910;28;20370;-67
2023/06/29 11:26:54;;;;;;;;;;;;;;;;;;5071718;28;19924;-67
2023/06/29 11:29:21;;;;;;;;;;;;;;;;;;5066744;28;20253;-61
2023/06/29 11:31:47;;;;;;;;;;;;;;;;;;5068908;28;20392;-61
2023/06/29 11:34:13;;;;;;;;;;;;;;;;;;5055451;28;19924;-61
2023/06/29 11:36:39;;;;;;;;;;;;;;;;;;5049842;28;20016;-61
2023/06/29 11:39:05;;;;;;;;;;;;;;;;;;5064924;28;20016;-61
2023/06/29 11:41:30;;;;;;;;;;;;;;;;;;5056368;28;20023;-61
2023/06/29 11:43:58;;;;;;;;;;;;;;;;;;5065078;28;19921;-61
2023/06/29 11:46:24;;;;;;;;;;;;;;;;;;5067885;28;19935;-61
2023/06/29 11:48:50;;;;;;;;;;;;;;;;;;5065184;28;20003;-61
2023/06/29 11:51:16;;;;;;;;;;;;;;;;;;5066436;28;19935;-61
2023/06/29 11:53:42;;;;;;;;;;;;;;;;;;5067893;28;19977;-61
2023/06/29 11:56:08;;;;;;;;;;;;;;;;;;5062841;28;20255;-61
2023/06/29 11:58:34;;;;;;;;;;;;;;;;;;5064513;28;20020;-61
2023/06/29 12:01:00;;;;;;;;;;;;;;;;;;5065605;28;19933;-61
2023/06/29 12:03:26;;;;;;;;;;;;;;;;;;5065504;28;20313;-61
2023/06/29 12:05:52;;;;;;;;;;;;;;;;;;5067647;28;19920;-61
2023/06/29 12:08:18;;;;;;;;;;;;;;;;;;5067238;28;19929;-61
2023/06/29 12:10:44;;;;;;;;;;;;;;;;;;5064784;28;20421;-61
2023/06/29 12:13:09;;;;;;;;;;;;;;;;;;5064723;28;19999;-61
2023/06/29 12:15:35;;;;;;;;;;;;;;;;;;5068943;28;19920;-60
2023/06/29 12:18:01;;;;;;;;;;;;;;;;;;5067742;28;19955;-60
2023/06/29 12:20:27;;;;;;;;;;;;;;;;;;5070362;28;19928;-61
2023/06/29 12:22:53;;;;;;;;;;;;;;;;;;5063712;28;19986;-60
2023/06/29 12:25:19;;;;;;;;;;;;;;;;;;5064824;28;19932;-61
2023/06/29 12:27:45;;;;;;;;;;;;;;;;;;5061366;28;21145;-61
2023/06/29 12:30:11;;;;;;;;;;;;;;;;;;5051719;28;19932;-61
2023/06/29 12:32:37;;;;;;;;;;;;;;;;;;5032389;28;19921;-61
2023/06/29 12:35:03;;;;;;;;;;;;;;;;;;5064131;28;19943;-61
2023/06/29 12:37:29;;;;;;;;;;;;;;;;;;5085444;22;19924;-63
2023/06/29 12:39:55;;;;;;;;;;;;;;;;;;5077889;28;20805;-63
2023/06/29 12:42:21;;;;;;;;;;;;;;;;;;5081594;28;20023;-63
2023/06/29 12:44:46;;;;;;;;;;;;;;;;;;5083794;28;19920;-63
2023/06/29 12:47:12;;;;;;;;;;;;;;;;;;5093380;28;20006;-63
2023/06/29 12:49:38;;;;;;;;;;;;;;;;;;5090227;28;20296;-63
2023/06/29 12:52:04;;;;;;;;;;;;;;;;;;5089661;28;20018;-63
2023/06/29 12:54:31;;;;;;;;;;;;;;;;;;5092340;28;19924;-63
2023/06/29 12:56:57;;;;;;;;;;;;;;;;;;5074925;28;20548;-63
2023/06/29 12:59:23;;;;;;;;;;;;;;;;;;5079060;28;19943;-63
2023/06/29 13:01:48;;;;;;;;;;;;;;;;;;5091318;28;20398;-63
2023/06/29 13:04:14;;;;;;;;;;;;;;;;;;5093213;28;20020;-62
2023/06/29 13:06:40;;;;;;;;;;;;;;;;;;5094714;28;20289;-63
2023/06/29 13:09:07;;;;;;;;;;;;;;;;;;5094395;28;19943;-62
2023/06/29 13:11:33;;;;;;;;;;;;;;;;;;5093379;28;20354;-62
2023/06/29 13:13:59;;;;;;;;;;;;;;;;;;5093830;28;19920;-63
2023/06/29 13:16:25;;;;;;;;;;;;;;;;;;5093881;28;19924;-63
2023/06/29 13:18:51;;;;;;;;;;;;;;;;;;5087897;28;20011;-63
2023/06/29 13:21:17;;;;;;;;;;;;;;;;;;5082943;28;20404;-62
2023/06/29 13:23:43;;;;;;;;;;;;;;;;;;5085844;28;20018;-63
2023/06/29 13:26:09;;;;;;;;;;;;;;;;;;5087801;28;20410;-63
2023/06/29 13:28:34;;;;;;;;;;;;;;;;;;5089030;28;20269;-63
2023/06/29 13:31:00;;;;;;;;;;;;;;;;;;5079842;28;19920;-63
2023/06/29 13:33:26;;;;;;;;;;;;;;;;;;5091068;28;19946;-63
2023/06/29 13:35:52;;;;;;;;;;;;;;;;;;5091094;28;19920;-64
2023/06/29 13:38:18;;;;;;;;;;;;;;;;;;5088261;28;19963;-63
2023/06/29 13:40:44;;;;;;;;;;;;;;;;;;5091310;28;20023;-63
2023/06/29 13:43:10;;;;;;;;;;;;;;;;;;5083480;28;20310;-63
2023/06/29 13:45:36;;;;;;;;;;;;;;;;;;5077007;28;19974;-63
2023/06/29 13:48:02;;;;;;;;;;;;;;;;;;5086949;28;20367;-63
2023/06/29 13:50:28;;;;;;;;;;;;;;;;;;5089509;28;20011;-63
2023/06/29 13:52:54;;;;;;;;;;;;;;;;;;5086134;28;20425;-63
2023/06/29 13:55:22;;;;;;;;;;;;;;;;;;5060954;28;19921;-63
2023/06/29 13:57:48;;;;;;;;;;;;;;;;;;5080836;28;19920;-63
2023/06/29 14:00:14;;;;;;;;;;;;;;;;;;5089798;28;19931;-63
2023/06/29 14:02:41;;;;;;;;;;;;;;;;;;5085305;28;20346;-63
2023/06/29 14:05:07;;;;;;;;;;;;;;;;;;5089959;28;20280;-63
2023/06/29 14:07:33;;;;;;;;;;;;;;;;;;5089822;28;20007;-63
2023/06/29 14:09:59;;;;;;;;;;;;;;;;;;5088286;28;19977;-62
2023/06/29 14:12:25;;;;;;;;;;;;;;;;;;5089914;28;20575;-63
2023/06/29 14:14:50;;;;;;;;;;;;;;;;;;5073822;28;19955;-63
2023/06/29 14:17:19;;;;;;;;;;;;;;;;;;5087549;28;20011;-62
2023/06/29 14:19:45;;;;;;;;;;;;;;;;;;5073631;28;20448;-62
2023/06/29 14:22:11;;;;;;;;;;;;;;;;;;5059995;28;20019;-62
2023/06/29 14:24:37;;;;;;;;;;;;;;;;;;5072721;28;20027;-62
2023/06/29 14:27:03;;;;;;;;;;;;;;;;;;5088678;28;20007;-64
2023/06/29 14:29:29;;;;;;;;;;;;;;;;;;5082696;28;20362;-64
2023/06/29 14:31:55;;;;;;;;;;;;;;;;;;5087771;28;19928;-64
2023/06/29 14:34:20;;;;;;;;;;;;;;;;;;5092557;28;19973;-64
2023/06/29 14:36:46;;;;;;;;;;;;;;;;;;5090887;28;19924;-64
2023/06/29 14:39:12;;;;;;;;;;;;;;;;;;5091142;28;20304;-64
2023/06/29 14:41:38;;;;;;;;;;;;;;;;;;5093147;28;19924;-64
2023/06/29 14:44:04;;;;;;;;;;;;;;;;;;5086464;28;19920;-64
2023/06/29 14:46:30;;;;;;;;;;;;;;;;;;5072692;28;19927;-64
2023/06/29 14:48:56;;;;;;;;;;;;;;;;;;5075061;28;19985;-65
2023/06/29 14:51:22;;;;;;;;;;;;;;;;;;5081425;28;19920;-64
2023/06/29 14:53:48;;;;;;;;;;;;;;;;;;5088703;28;20362;-64
2023/06/29 14:56:13;;;;;;;;;;;;;;;;;;5092948;28;20002;-65
2023/06/29 14:58:39;;;;;;;;;;;;;;;;;;5093250;28;19946;-65
2023/06/29 15:01:05;;;;;;;;;;;;;;;;;;5089757;28;19932;-65
2023/06/29 15:03:31;;;;;;;;;;;;;;;;;;5092151;28;20364;-65
2023/06/29 15:05:57;;;;;;;;;;;;;;;;;;5092092;28;19926;-65
2023/06/29 15:08:23;;;;;;;;;;;;;;;;;;5092014;28;19924;-64
2023/06/29 15:10:49;;;;;;;;;;;;;;;;;;5090883;28;19931;-65
2023/06/29 15:13:16;;;;;;;;;;;;;;;;;;5092999;28;20001;-64
2023/06/29 15:15:42;;;;;;;;;;;;;;;;;;5090944;28;19967;-64
2023/06/29 15:18:08;;;;;;;;;;;;;;;;;;5087980;28;20385;-64
2023/06/29 15:20:33;;;;;;;;;;;;;;;;;;5089381;28;20008;-64
2023/06/29 15:22:59;;;;;;;;;;;;;;;;;;5068676;28;19927;-64
2023/06/29 15:25:25;;;;;;;;;;;;;;;;;;5083669;28;19924;-64
2023/06/29 15:27:51;;;;;;;;;;;;;;;;;;5089376;28;20465;-64
2023/06/29 15:30:17;;;;;;;;;;;;;;;;;;5089246;28;19927;-65
2023/06/29 15:32:43;;;;;;;;;;;;;;;;;;5089869;28;19921;-65
2023/06/29 15:35:10;;;;;;;;;;;;;;;;;;5090405;28;19924;-64
2023/06/29 15:37:36;;;;;;;;;;;;;;;;;;5083706;28;20588;-64
2023/06/29 15:40:02;;;;;;;;;;;;;;;;;;5059659;28;19932;-65
2023/06/29 15:42:28;;;;;;;;;;;;;;;;;;5087402;28;19936;-64
2023/06/29 15:44:54;;;;;;;;;;;;;;;;;;5089538;28;20387;-64
2023/06/29 15:47:20;;;;;;;;;;;;;;;;;;5087247;28;19955;-64
2023/06/29 15:49:46;;;;;;;;;;;;;;;;;;5087662;28;19920;-64
2023/06/29 15:52:12;;;;;;;;;;;;;;;;;;5087907;28;20322;-64
2023/06/29 15:54:38;;;;;;;;;;;;;;;;;;5092307;28;19967;-64
2023/06/29 15:57:04;;;;;;;;;;;;;;;;;;5090875;28;20112;-64
2023/06/29 15:59:30;;;;;;;;;;;;;;;;;;5092138;28;19978;-64
2023/06/29 16:01:56;;;;;;;;;;;;;;;;;;5090965;28;20273;-64
2023/06/29 16:04:22;;;;;;;;;;;;;;;;;;5092309;28;19963;-64
2023/06/29 16:06:48;;;;;;;;;;;;;;;;;;5090820;28;19952;-64
2023/06/29 16:09:14;;;;;;;;;;;;;;;;;;5090732;28;19975;-64
2023/06/29 16:11:40;;;;;;;;;;;;;;;;;;5090553;28;19930;-64
2023/06/29 16:14:05;;;;;;;;;;;;;;;;;;5092065;28;20023;-64
2023/06/29 16:16:31;;;;;;;;;;;;;;;;;;5092050;28;19923;-64
2023/06/29 16:18:57;;;;;;;;;;;;;;;;;;5092105;28;19981;-64
2023/06/29 16:21:23;;;;;;;;;;;;;;;;;;5093506;28;19924;-64
2023/06/29 16:23:49;;;;;;;;;;;;;;;;;;5094251;28;19920;-64
2023/06/29 16:26:15;;;;;;;;;;;;;;;;;;5075444;28;19967;-64
2023/06/29 16:28:41;;;;;;;;;;;;;;;;;;5078643;28;19924;-64
2023/06/29 16:31:07;;;;;;;;;;;;;;;;;;5095476;28;19920;-64
2023/06/29 16:33:33;;;;;;;;;;;;;;;;;;5095214;28;19946;-64
2023/06/29 16:35:58;;;;;;;;;;;;;;;;;;5095036;28;19931;-64
2023/06/29 16:38:24;;;;;;;;;;;;;;;;;;5095136;28;19932;-64